sensor_id;sensor_type;location;lat;lon;timestamp;pressure;altitude;pressure_sealevel;temperature;humidity
43934;BME280;59081;42.706;23.306;2023-04-10T00:01:42;95116.25;;;5.00;88.30
43934;BME280;59081;42.706;23.306;2023-04-10T00:04:08;95252.44;;;5.94;88.61
43934;BME280;59081;42.706;23.306;2023-04-10T00:06:34;95121.97;;;5.16;87.42
43934;BME280;59081;42.706;23.306;2023-04-10T00:09:00;95115.09;;;5.01;86.92
43934;BME280;59081;42.706;23.306;2023-04-10T00:11:26;95190.03;;;5.41;87.07
43934;BME280;59081;42.706;23.306;2023-04-10T00:13:52;95180.34;;;5.37;86.96
43934;BME280;59081;42.706;23.306;2023-04-10T00:16:21;95374.59;;;6.53;86.63
43934;BME280;59081;42.706;23.306;2023-04-10T00:18:50;95355.91;;;6.44;87.10
43934;BME280;59081;42.706;23.306;2023-04-10T00:21:19;95206.63;;;5.16;87.45
43934;BME280;59081;42.706;23.306;2023-04-10T00:23:48;95359.28;;;6.18;87.76
43934;BME280;59081;42.706;23.306;2023-04-10T00:26:16;95294.34;;;5.77;88.12
43934;BME280;59081;42.706;23.306;2023-04-10T00:28:45;95286.22;;;5.70;86.82
43934;BME280;59081;42.706;23.306;2023-04-10T00:31:11;95076.16;;;4.42;84.39
43934;BME280;59081;42.706;23.306;2023-04-10T00:33:37;95348.88;;;6.43;82.21
43934;BME280;59081;42.706;23.306;2023-04-10T00:36:03;95054.63;;;4.54;80.61
43934;BME280;59081;42.706;23.306;2023-04-10T00:38:29;95301.34;;;6.26;79.03
43934;BME280;59081;42.706;23.306;2023-04-10T00:40:58;95090.63;;;4.87;78.18
43934;BME280;59081;42.706;23.306;2023-04-10T00:43:24;95098.81;;;4.87;78.88
43934;BME280;59081;42.706;23.306;2023-04-10T00:45:50;95108.13;;;4.93;77.41
43934;BME280;59081;42.706;23.306;2023-04-10T00:48:18;95196.59;;;5.51;76.06
43934;BME280;59081;42.706;23.306;2023-04-10T00:50:53;95127.38;;;5.23;75.40
43934;BME280;59081;42.706;23.306;2023-04-10T00:55:49;95090.03;;;4.62;80.24
43934;BME280;59081;42.706;23.306;2023-04-10T00:58:15;95274.91;;;5.68;81.90
43934;BME280;59081;42.706;23.306;2023-04-10T01:00:47;95294.88;;;5.62;84.17
43934;BME280;59081;42.706;23.306;2023-04-10T01:03:15;95289.41;;;5.58;85.74
43934;BME280;59081;42.706;23.306;2023-04-10T01:08:43;95118.78;;;4.77;87.75
43934;BME280;59081;42.706;23.306;2023-04-10T01:11:37;95050.25;;;4.09;93.67
43934;BME280;59081;42.706;23.306;2023-04-10T01:14:26;95326.78;;;5.72;96.64
43934;BME280;59081;42.706;23.306;2023-04-10T01:20:25;95293.06;;;5.37;98.88
43934;BME280;59081;42.706;23.306;2023-04-10T01:23:37;95328.25;;;5.87;98.11
43934;BME280;59081;42.706;23.306;2023-04-10T01:26:09;95154.28;;;4.70;97.32
43934;BME280;59081;42.706;23.306;2023-04-10T01:29:05;95206.38;;;4.93;98.51
43934;BME280;59081;42.706;23.306;2023-04-10T01:31:43;95055.38;;;3.96;99.81
43934;BME280;59081;42.706;23.306;2023-04-10T01:34:19;95269.03;;;5.70;100.00
43934;BME280;59081;42.706;23.306;2023-04-10T01:36:53;95231.22;;;5.61;98.62
43934;BME280;59081;42.706;23.306;2023-04-10T01:39:21;95077.84;;;4.73;97.58
43934;BME280;59081;42.706;23.306;2023-04-10T01:41:50;95166.16;;;5.49;96.51
43934;BME280;59081;42.706;23.306;2023-04-10T01:44:18;95094.22;;;5.21;95.63
43934;BME280;59081;42.706;23.306;2023-04-10T01:49:34;95168.88;;;5.93;94.59
43934;BME280;59081;42.706;23.306;2023-04-10T01:54:45;95092.78;;;5.51;93.19
43934;BME280;59081;42.706;23.306;2023-04-10T01:57:17;95096.13;;;5.28;94.29
43934;BME280;59081;42.706;23.306;2023-04-10T01:59:46;95237.94;;;6.01;96.75
43934;BME280;59081;42.706;23.306;2023-04-10T02:02:15;95224.28;;;5.53;98.00
43934;BME280;59081;42.706;23.306;2023-04-10T02:04:43;95309.03;;;5.46;100.00
43934;BME280;59081;42.706;23.306;2023-04-10T02:10:16;95078.69;;;4.01;100.00
43934;BME280;59081;42.706;23.306;2023-04-10T02:12:57;95052.88;;;4.23;100.00
43934;BME280;59081;42.706;23.306;2023-04-10T02:15:26;95122.69;;;4.76;100.00
43934;BME280;59081;42.706;23.306;2023-04-10T02:17:53;95042.59;;;4.48;100.00
43934;BME280;59081;42.706;23.306;2023-04-10T02:20:21;95085.22;;;4.80;100.00
43934;BME280;59081;42.706;23.306;2023-04-10T02:22:50;95180.72;;;5.76;100.00
43934;BME280;59081;42.706;23.306;2023-04-10T02:25:17;95053.47;;;5.00;100.00
43934;BME280;59081;42.706;23.306;2023-04-10T02:27:43;95047.59;;;4.53;99.02
43934;BME280;59081;42.706;23.306;2023-04-10T02:30:09;95259.50;;;5.40;100.00
43934;BME280;59081;42.706;23.306;2023-04-10T02:32:35;95044.13;;;3.83;100.00
43934;BME280;59081;42.706;23.306;2023-04-10T02:35:02;95029.00;;;3.75;100.00
43934;BME280;59081;42.706;23.306;2023-04-10T02:37:33;95076.53;;;4.40;100.00
43934;BME280;59081;42.706;23.306;2023-04-10T02:40:02;95194.63;;;5.51;100.00
43934;BME280;59081;42.706;23.306;2023-04-10T02:42:28;95069.47;;;4.98;100.00
43934;BME280;59081;42.706;23.306;2023-04-10T02:44:57;94994.03;;;4.77;100.00
43934;BME280;59081;42.706;23.306;2023-04-10T02:47:35;95065.09;;;5.49;98.81
43934;BME280;59081;42.706;23.306;2023-04-10T02:50:01;95044.38;;;5.51;96.46
43934;BME280;59081;42.706;23.306;2023-04-10T02:52:30;95034.47;;;4.41;97.16
43934;BME280;59081;42.706;23.306;2023-04-10T02:54:56;95278.13;;;5.56;100.00
43934;BME280;59081;42.706;23.306;2023-04-10T02:57:22;94980.91;;;3.44;100.00
43934;BME280;59081;42.706;23.306;2023-04-10T02:59:58;95112.16;;;4.12;100.00
43934;BME280;59081;42.706;23.306;2023-04-10T03:02:33;95183.22;;;4.57;100.00
43934;BME280;59081;42.706;23.306;2023-04-10T03:05:05;95247.63;;;5.09;100.00
43934;BME280;59081;42.706;23.306;2023-04-10T03:07:33;95027.69;;;4.01;100.00
43934;BME280;59081;42.706;23.306;2023-04-10T03:09:59;95094.25;;;4.70;100.00
43934;BME280;59081;42.706;23.306;2023-04-10T03:12:30;95018.50;;;4.40;100.00
43934;BME280;59081;42.706;23.306;2023-04-10T03:14:56;95124.19;;;5.29;100.00
43934;BME280;59081;42.706;23.306;2023-04-10T03:17:25;95181.84;;;5.82;99.79
43934;BME280;59081;42.706;23.306;2023-04-10T03:19:51;95026.97;;;4.97;97.57
43934;BME280;59081;42.706;23.306;2023-04-10T03:22:17;95036.16;;;5.17;96.39
43934;BME280;59081;42.706;23.306;2023-04-10T03:24:42;95275.97;;;5.81;99.17
43934;BME280;59081;42.706;23.306;2023-04-10T03:27:11;95034.88;;;3.67;100.00
43934;BME280;59081;42.706;23.306;2023-04-10T03:29:40;95283.91;;;5.03;100.00
43934;BME280;59081;42.706;23.306;2023-04-10T03:32:06;95016.03;;;3.06;100.00
43934;BME280;59081;42.706;23.306;2023-04-10T03:34:31;95122.44;;;3.65;100.00
43934;BME280;59081;42.706;23.306;2023-04-10T03:37:00;95143.44;;;3.72;100.00
43934;BME280;59081;42.706;23.306;2023-04-10T03:39:29;95021.78;;;3.30;100.00
43934;BME280;59081;42.706;23.306;2023-04-10T03:41:58;95122.63;;;4.17;100.00
43934;BME280;59081;42.706;23.306;2023-04-10T03:44:25;95289.50;;;5.47;100.00
43934;BME280;59081;42.706;23.306;2023-04-10T03:46:51;95285.88;;;5.61;100.00
43934;BME280;59081;42.706;23.306;2023-04-10T03:49:17;95232.19;;;5.40;100.00
43934;BME280;59081;42.706;23.306;2023-04-10T03:51:46;95130.44;;;4.81;100.00
43934;BME280;59081;42.706;23.306;2023-04-10T03:54:16;95231.34;;;5.47;100.00
43934;BME280;59081;42.706;23.306;2023-04-10T03:56:44;95281.94;;;5.10;100.00
43934;BME280;59081;42.706;23.306;2023-04-10T03:59:13;95006.00;;;2.75;100.00
43934;BME280;59081;42.706;23.306;2023-04-10T04:01:41;95195.56;;;3.84;100.00
43934;BME280;59081;42.706;23.306;2023-04-10T04:04:20;95298.63;;;4.46;100.00
43934;BME280;59081;42.706;23.306;2023-04-10T04:06:50;95049.50;;;2.68;100.00
43934;BME280;59081;42.706;23.306;2023-04-10T04:09:22;95034.38;;;2.60;100.00
43934;BME280;59081;42.706;23.306;2023-04-10T04:11:51;95056.06;;;3.09;100.00
43934;BME280;59081;42.706;23.306;2023-04-10T04:14:22;95102.72;;;3.11;100.00
43934;BME280;59081;42.706;23.306;2023-04-10T04:16:50;95311.47;;;4.42;100.00
43934;BME280;59081;42.706;23.306;2023-04-10T04:19:21;95183.94;;;3.59;100.00
43934;BME280;59081;42.706;23.306;2023-04-10T04:21:47;95163.13;;;4.22;100.00
43934;BME280;59081;42.706;23.306;2023-04-10T04:24:16;95319.59;;;5.40;100.00
43934;BME280;59081;42.706;23.306;2023-04-10T04:26:42;95319.94;;;4.80;100.00
43934;BME280;59081;42.706;23.306;2023-04-10T04:29:16;95310.25;;;4.61;100.00
43934;BME280;59081;42.706;23.306;2023-04-10T04:31:48;95118.66;;;3.17;100.00
43934;BME280;59081;42.706;23.306;2023-04-10T04:34:19;95164.13;;;3.34;100.00
43934;BME280;59081;42.706;23.306;2023-04-10T04:36:45;95089.91;;;2.87;100.00
43934;BME280;59081;42.706;23.306;2023-04-10T04:39:38;95087.19;;;3.01;100.00
43934;BME280;59081;42.706;23.306;2023-04-10T04:42:04;95244.47;;;4.34;100.00
43934;BME280;59081;42.706;23.306;2023-04-10T04:44:32;95235.41;;;4.66;100.00
43934;BME280;59081;42.706;23.306;2023-04-10T04:46:58;95325.31;;;4.94;100.00
43934;BME280;59081;42.706;23.306;2023-04-10T04:49:27;95051.41;;;2.96;100.00
43934;BME280;59081;42.706;23.306;2023-04-10T04:51:55;95060.75;;;3.05;100.00
43934;BME280;59081;42.706;23.306;2023-04-10T04:54:21;95058.44;;;2.86;100.00
43934;BME280;59081;42.706;23.306;2023-04-10T04:56:56;95153.59;;;3.50;100.00
43934;BME280;59081;42.706;23.306;2023-04-10T04:59:29;95288.44;;;4.61;100.00
43934;BME280;59081;42.706;23.306;2023-04-10T05:02:00;95177.13;;;4.24;100.00
43934;BME280;59081;42.706;23.306;2023-04-10T05:04:26;95134.69;;;4.23;100.00
43934;BME280;59081;42.706;23.306;2023-04-10T05:06:51;95079.44;;;4.12;100.00
43934;BME280;59081;42.706;23.306;2023-04-10T05:09:17;95261.84;;;5.42;100.00
43934;BME280;59081;42.706;23.306;2023-04-10T05:11:43;95095.38;;;4.17;100.00
43934;BME280;59081;42.706;23.306;2023-04-10T05:14:12;95182.88;;;4.44;100.00
43934;BME280;59081;42.706;23.306;2023-04-10T05:16:43;95080.78;;;3.72;100.00
43934;BME280;59081;42.706;23.306;2023-04-10T05:19:15;95059.09;;;3.43;100.00
43934;BME280;59081;42.706;23.306;2023-04-10T05:21:41;95062.16;;;3.56;100.00
43934;BME280;59081;42.706;23.306;2023-04-10T05:24:10;95162.19;;;4.53;100.00
43934;BME280;59081;42.706;23.306;2023-04-10T05:26:38;95234.81;;;4.99;100.00
43934;BME280;59081;42.706;23.306;2023-04-10T05:29:11;95278.97;;;5.46;100.00
43934;BME280;59081;42.706;23.306;2023-04-10T05:31:43;95062.03;;;3.84;100.00
43934;BME280;59081;42.706;23.306;2023-04-10T05:34:14;95220.78;;;4.97;100.00
43934;BME280;59081;42.706;23.306;2023-04-10T05:36:47;95084.16;;;4.01;100.00
43934;BME280;59081;42.706;23.306;2023-04-10T05:39:24;95165.84;;;4.92;100.00
43934;BME280;59081;42.706;23.306;2023-04-10T05:41:58;95336.78;;;6.00;100.00
43934;BME280;59081;42.706;23.306;2023-04-10T05:44:33;95343.03;;;6.00;100.00
43934;BME280;59081;42.706;23.306;2023-04-10T05:47:04;95287.03;;;5.67;100.00
43934;BME280;59081;42.706;23.306;2023-04-10T05:49:32;95278.75;;;5.74;100.00
43934;BME280;59081;42.706;23.306;2023-04-10T05:52:03;95342.88;;;6.18;100.00
43934;BME280;59081;42.706;23.306;2023-04-10T05:54:32;95109.78;;;4.83;100.00
43934;BME280;59081;42.706;23.306;2023-04-10T05:57:07;95258.00;;;5.80;95.14
43934;BME280;59081;42.706;23.306;2023-04-10T05:59:37;95296.13;;;6.02;96.32
43934;BME280;59081;42.706;23.306;2023-04-10T06:02:08;95228.44;;;5.68;96.98
43934;BME280;59081;42.706;23.306;2023-04-10T06:04:37;95246.72;;;5.75;97.24
43934;BME280;59081;42.706;23.306;2023-04-10T06:07:05;95289.78;;;6.12;97.51
43934;BME280;59081;42.706;23.306;2023-04-10T06:09:34;95291.13;;;6.34;98.69
43934;BME280;59081;42.706;23.306;2023-04-10T06:12:03;95092.06;;;5.43;96.87
43934;BME280;59081;42.706;23.306;2023-04-10T06:14:30;95115.91;;;5.77;92.88
43934;BME280;59081;42.706;23.306;2023-04-10T06:16:55;95223.22;;;6.90;92.79
43934;BME280;59081;42.706;23.306;2023-04-10T06:19:21;95136.88;;;6.55;90.84
43934;BME280;59081;42.706;23.306;2023-04-10T06:21:47;95093.50;;;6.53;88.76
43934;BME280;59081;42.706;23.306;2023-04-10T06:24:15;95137.56;;;7.13;86.33
43934;BME280;59081;42.706;23.306;2023-04-10T06:26:41;95110.09;;;6.93;83.06
43934;BME280;59081;42.706;23.306;2023-04-10T06:29:07;95183.28;;;7.43;82.85
43934;BME280;59081;42.706;23.306;2023-04-10T06:31:33;95113.41;;;7.08;82.48
43934;BME280;59081;42.706;23.306;2023-04-10T06:34:01;95259.28;;;7.89;80.94
43934;BME280;59081;42.706;23.306;2023-04-10T06:39:15;95341.94;;;8.61;80.89
43934;BME280;59081;42.706;23.306;2023-04-10T06:41:43;95319.63;;;8.59;80.41
43934;BME280;59081;42.706;23.306;2023-04-10T06:44:09;95093.94;;;7.25;78.77
43934;BME280;59081;42.706;23.306;2023-04-10T06:46:37;95083.31;;;7.27;76.27
43934;BME280;59081;42.706;23.306;2023-04-10T06:59:49;95098.72;;;6.94;75.78
43934;BME280;59081;42.706;23.306;2023-04-10T07:02:15;95121.78;;;7.20;76.73
43934;BME280;59081;42.706;23.306;2023-04-10T07:05:28;95353.88;;;8.94;75.58
43934;BME280;59081;42.706;23.306;2023-04-10T07:07:59;95149.06;;;7.27;75.63
43934;BME280;59081;42.706;23.306;2023-04-10T07:10:25;95079.88;;;7.00;75.37
43934;BME280;59081;42.706;23.306;2023-04-10T07:12:54;95202.47;;;7.66;75.18
43934;BME280;59081;42.706;23.306;2023-04-10T07:15:21;95176.13;;;7.49;74.10
43934;BME280;59081;42.706;23.306;2023-04-10T07:17:47;95226.41;;;7.85;74.89
43934;BME280;59081;42.706;23.306;2023-04-10T07:20:13;95245.66;;;8.05;75.73
43934;BME280;59081;42.706;23.306;2023-04-10T07:22:39;95206.59;;;7.97;74.96
43934;BME280;59081;42.706;23.306;2023-04-10T07:25:05;95140.59;;;7.18;74.13
43934;BME280;59081;42.706;23.306;2023-04-10T07:27:31;95124.94;;;7.19;74.88
43934;BME280;59081;42.706;23.306;2023-04-10T07:29:59;95105.34;;;7.20;73.10
43934;BME280;59081;42.706;23.306;2023-04-10T07:32:25;95258.25;;;8.02;73.33
43934;BME280;59081;42.706;23.306;2023-04-10T07:34:54;95235.72;;;7.91;73.73
43934;BME280;59081;42.706;23.306;2023-04-10T07:37:19;95209.59;;;7.83;73.56
43934;BME280;59081;42.706;23.306;2023-04-10T07:39:47;95129.38;;;7.36;72.62
43934;BME280;59081;42.706;23.306;2023-04-10T07:42:13;95111.78;;;7.10;73.08
43934;BME280;59081;42.706;23.306;2023-04-10T07:44:39;95245.47;;;8.16;72.26
43934;BME280;59081;42.706;23.306;2023-04-10T07:47:04;95189.16;;;7.64;71.92
43934;BME280;59081;42.706;23.306;2023-04-10T07:49:30;95170.34;;;7.66;71.21
43934;BME280;59081;42.706;23.306;2023-04-10T07:51:56;95076.16;;;7.10;72.67
43934;BME280;59081;42.706;23.306;2023-04-10T07:54:21;95255.19;;;8.44;71.63
43934;BME280;59081;42.706;23.306;2023-04-10T07:56:47;95278.03;;;8.80;70.36
43934;BME280;59081;42.706;23.306;2023-04-10T07:59:13;95177.28;;;8.37;70.09
43934;BME280;59081;42.706;23.306;2023-04-10T08:01:38;95128.13;;;7.84;70.38
43934;BME280;59081;42.706;23.306;2023-04-10T08:04:07;95221.06;;;8.64;70.70
43934;BME280;59081;42.706;23.306;2023-04-10T08:06:33;95164.09;;;8.29;69.26
43934;BME280;59081;42.706;23.306;2023-04-10T08:09:02;95163.84;;;8.43;69.51
43934;BME280;59081;42.706;23.306;2023-04-10T08:11:29;95120.69;;;8.24;69.52
43934;BME280;59081;42.706;23.306;2023-04-10T08:13:58;95083.28;;;8.14;68.17
43934;BME280;59081;42.706;23.306;2023-04-10T08:16:30;95267.13;;;9.13;68.58
43934;BME280;59081;42.706;23.306;2023-04-10T08:18:56;95098.63;;;7.68;69.47
43934;BME280;59081;42.706;23.306;2023-04-10T08:21:26;95085.25;;;7.50;69.93
43934;BME280;59081;42.706;23.306;2023-04-10T08:24:01;95248.78;;;8.90;70.44
43934;BME280;59081;42.706;23.306;2023-04-10T08:26:28;95086.50;;;7.89;68.66
43934;BME280;59081;42.706;23.306;2023-04-10T08:29:00;95184.97;;;8.46;68.42
43934;BME280;59081;42.706;23.306;2023-04-10T08:31:27;95294.06;;;9.37;68.38
43934;BME280;59081;42.706;23.306;2023-04-10T08:33:53;95190.16;;;8.96;66.75
43934;BME280;59081;42.706;23.306;2023-04-10T08:36:22;95318.03;;;9.73;65.83
43934;BME280;59081;42.706;23.306;2023-04-10T08:38:51;95113.63;;;8.23;65.11
43934;BME280;59081;42.706;23.306;2023-04-10T08:41:18;95249.34;;;8.81;67.48
43934;BME280;59081;42.706;23.306;2023-04-10T08:43:44;95095.56;;;7.86;66.72
43934;BME280;59081;42.706;23.306;2023-04-10T08:46:13;95355.50;;;9.67;66.35
43934;BME280;59081;42.706;23.306;2023-04-10T08:48:54;95103.09;;;8.01;66.41
43934;BME280;59081;42.706;23.306;2023-04-10T08:51:35;95354.59;;;9.90;65.51
43934;BME280;59081;42.706;23.306;2023-04-10T08:54:13;95192.06;;;8.99;63.99
43934;BME280;59081;42.706;23.306;2023-04-10T08:56:49;95342.66;;;9.96;64.05
43934;BME280;59081;42.706;23.306;2023-04-10T08:59:18;95245.41;;;9.18;64.89
43934;BME280;59081;42.706;23.306;2023-04-10T09:01:44;95244.41;;;9.28;64.39
43934;BME280;59081;42.706;23.306;2023-04-10T09:04:12;95264.06;;;9.79;64.15
43934;BME280;59081;42.706;23.306;2023-04-10T09:06:40;95054.88;;;8.20;63.31
43934;BME280;59081;42.706;23.306;2023-04-10T09:09:06;95288.38;;;9.81;62.82
43934;BME280;59081;42.706;23.306;2023-04-10T09:11:56;95349.91;;;10.39;62.26
43934;BME280;59081;42.706;23.306;2023-04-10T09:14:32;95315.91;;;10.74;60.26
43934;BME280;59081;42.706;23.306;2023-04-10T09:17:14;95328.81;;;10.77;59.66
43934;BME280;59081;42.706;23.306;2023-04-10T09:19:42;95105.50;;;9.40;58.88
43934;BME280;59081;42.706;23.306;2023-04-10T09:22:08;95139.50;;;9.62;59.04
43934;BME280;59081;42.706;23.306;2023-04-10T09:24:36;95065.41;;;9.10;58.53
43934;BME280;59081;42.706;23.306;2023-04-10T09:27:02;95214.41;;;10.15;59.89
43934;BME280;59081;42.706;23.306;2023-04-10T09:29:41;95220.19;;;9.88;59.34
43934;BME280;59081;42.706;23.306;2023-04-10T09:32:07;95099.16;;;9.11;59.36
43934;BME280;59081;42.706;23.306;2023-04-10T09:34:33;95077.88;;;8.82;57.53
43934;BME280;59081;42.706;23.306;2023-04-10T09:37:05;95117.28;;;9.08;57.67
43934;BME280;59081;42.706;23.306;2023-04-10T09:39:37;95131.44;;;9.06;56.40
43934;BME280;59081;42.706;23.306;2023-04-10T09:42:08;95244.09;;;9.91;56.98
43934;BME280;59081;42.706;23.306;2023-04-10T09:44:36;95069.19;;;8.84;58.34
43934;BME280;59081;42.706;23.306;2023-04-10T09:47:17;95236.16;;;10.09;59.26
43934;BME280;59081;42.706;23.306;2023-04-10T09:52:21;95078.09;;;9.20;55.93
43934;BME280;59081;42.706;23.306;2023-04-10T09:54:47;95072.63;;;9.04;55.41
43934;BME280;59081;42.706;23.306;2023-04-10T09:57:22;95153.19;;;9.66;55.88
43934;BME280;59081;42.706;23.306;2023-04-10T09:59:52;95055.03;;;9.18;56.41
43934;BME280;59081;42.706;23.306;2023-04-10T10:02:20;95253.28;;;10.33;56.02
43934;BME280;59081;42.706;23.306;2023-04-10T10:04:49;95117.13;;;9.31;56.26
43934;BME280;59081;42.706;23.306;2023-04-10T10:07:17;95049.72;;;8.78;56.37
43934;BME280;59081;42.706;23.306;2023-04-10T10:09:45;95247.09;;;10.29;56.72
43934;BME280;59081;42.706;23.306;2023-04-10T10:12:12;95175.75;;;9.90;55.75
43934;BME280;59081;42.706;23.306;2023-04-10T10:14:55;95093.91;;;9.49;54.97
43934;BME280;59081;42.706;23.306;2023-04-10T10:17:23;95186.78;;;10.35;54.43
43934;BME280;59081;42.706;23.306;2023-04-10T10:20:17;95284.94;;;11.12;53.79
43934;BME280;59081;42.706;23.306;2023-04-10T10:22:45;95055.50;;;9.74;53.31
43934;BME280;59081;42.706;23.306;2023-04-10T10:25:11;95039.56;;;9.69;52.69
43934;BME280;59081;42.706;23.306;2023-04-10T10:27:39;95042.34;;;9.36;54.13
43934;BME280;59081;42.706;23.306;2023-04-10T10:30:08;95122.81;;;9.86;57.61
43934;BME280;59081;42.706;23.306;2023-04-10T10:32:34;95135.84;;;9.98;59.07
43934;BME280;59081;42.706;23.306;2023-04-10T10:35:01;95067.06;;;9.69;58.78
43934;BME280;59081;42.706;23.306;2023-04-10T10:37:28;95158.31;;;10.54;58.16
43934;BME280;59081;42.706;23.306;2023-04-10T10:40:30;95267.78;;;11.21;57.97
43934;BME280;59081;42.706;23.306;2023-04-10T10:43:26;95217.38;;;11.07;58.08
43934;BME280;59081;42.706;23.306;2023-04-10T10:46:06;95082.09;;;10.22;58.14
43934;BME280;59081;42.706;23.306;2023-04-10T10:48:33;95049.84;;;9.94;56.26
43934;BME280;59081;42.706;23.306;2023-04-10T10:51:00;95004.41;;;9.60;55.56
43934;BME280;59081;42.706;23.306;2023-04-10T10:53:42;95155.66;;;10.63;54.48
43934;BME280;59081;42.706;23.306;2023-04-10T10:58:52;95023.66;;;9.89;53.65
43934;BME280;59081;42.706;23.306;2023-04-10T11:01:24;95005.97;;;10.03;52.71
43934;BME280;59081;42.706;23.306;2023-04-10T11:03:50;95108.19;;;10.85;51.91
43934;BME280;59081;42.706;23.306;2023-04-10T11:06:17;95119.53;;;11.12;51.46
43934;BME280;59081;42.706;23.306;2023-04-10T11:08:47;95130.94;;;11.74;50.77
43934;BME280;59081;42.706;23.306;2023-04-10T11:16:21;94997.53;;;12.42;47.00
43934;BME280;59081;42.706;23.306;2023-04-10T11:21:20;95147.19;;;13.74;48.28
43934;BME280;59081;42.706;23.306;2023-04-10T11:29:02;95111.72;;;12.70;48.69
43934;BME280;59081;42.706;23.306;2023-04-10T11:31:29;95070.41;;;12.67;47.79
43934;BME280;59081;42.706;23.306;2023-04-10T11:36:22;95099.94;;;12.04;47.62
43934;BME280;59081;42.706;23.306;2023-04-10T11:38:57;95228.97;;;12.60;49.18
43934;BME280;59081;42.706;23.306;2023-04-10T11:41:34;95012.19;;;10.83;50.01
43934;BME280;59081;42.706;23.306;2023-04-10T11:44:03;95020.09;;;10.94;50.59
43934;BME280;59081;42.706;23.306;2023-04-10T11:46:29;94980.09;;;11.02;49.52
43934;BME280;59081;42.706;23.306;2023-04-10T11:48:57;95220.09;;;12.87;49.33
43934;BME280;59081;42.706;23.306;2023-04-10T11:51:23;95026.72;;;11.78;49.72
43934;BME280;59081;42.706;23.306;2023-04-10T11:54:10;95006.75;;;11.74;49.26
43934;BME280;59081;42.706;23.306;2023-04-10T11:56:44;95072.03;;;12.55;48.35
43934;BME280;59081;42.706;23.306;2023-04-10T11:59:10;95217.75;;;13.29;49.59
43934;BME280;59081;42.706;23.306;2023-04-10T12:01:42;95024.19;;;11.83;50.42
43934;BME280;59081;42.706;23.306;2023-04-10T12:04:18;95149.66;;;12.26;52.36
43934;BME280;59081;42.706;23.306;2023-04-10T12:06:51;95082.81;;;11.62;53.54
43934;BME280;59081;42.706;23.306;2023-04-10T12:09:20;95031.69;;;11.48;53.80
43934;BME280;59081;42.706;23.306;2023-04-10T12:11:51;95114.97;;;12.25;53.88
43934;BME280;59081;42.706;23.306;2023-04-10T12:14:18;94997.06;;;11.00;55.09
43934;BME280;59081;42.706;23.306;2023-04-10T12:16:44;95010.44;;;10.89;55.21
43934;BME280;59081;42.706;23.306;2023-04-10T12:19:13;94961.19;;;10.15;58.67
43934;BME280;59081;42.706;23.306;2023-04-10T12:21:41;94998.16;;;9.31;65.62
43934;BME280;59081;42.706;23.306;2023-04-10T12:24:08;94982.69;;;8.59;69.27
43934;BME280;59081;42.706;23.306;2023-04-10T12:26:33;95234.38;;;9.70;72.45
43934;BME280;59081;42.706;23.306;2023-04-10T12:29:02;94963.22;;;7.82;71.10
43934;BME280;59081;42.706;23.306;2023-04-10T12:31:30;94979.50;;;7.53;75.44
43934;BME280;59081;42.706;23.306;2023-04-10T12:33:57;95187.06;;;8.38;81.44
43934;BME280;59081;42.706;23.306;2023-04-10T12:36:30;94966.44;;;6.54;83.93
43934;BME280;59081;42.706;23.306;2023-04-10T12:39:20;95014.34;;;6.39;85.58
43934;BME280;59081;42.706;23.306;2023-04-10T12:47:27;94968.75;;;5.72;92.06
43934;BME280;59081;42.706;23.306;2023-04-10T12:50:09;95086.50;;;6.76;89.65
43934;BME280;59081;42.706;23.306;2023-04-10T12:53:04;95000.81;;;6.55;84.74
43934;BME280;59081;42.706;23.306;2023-04-10T12:55:37;94981.47;;;6.66;83.64
43934;BME280;59081;42.706;23.306;2023-04-10T12:58:16;94984.28;;;6.86;85.04
43934;BME280;59081;42.706;23.306;2023-04-10T13:00:42;94944.91;;;6.99;84.41
43934;BME280;59081;42.706;23.306;2023-04-10T13:03:08;94937.97;;;7.34;84.47
43934;BME280;59081;42.706;23.306;2023-04-10T13:05:34;95067.34;;;8.45;83.57
43934;BME280;59081;42.706;23.306;2023-04-10T13:08:00;95089.28;;;8.97;81.43
43934;BME280;59081;42.706;23.306;2023-04-10T13:10:26;95055.88;;;9.15;79.71
43934;BME280;59081;42.706;23.306;2023-04-10T13:12:52;94971.69;;;8.59;77.97
43934;BME280;59081;42.706;23.306;2023-04-10T13:15:18;95182.16;;;10.16;76.95
43934;BME280;59081;42.706;23.306;2023-04-10T13:17:44;95056.38;;;9.71;77.65
43934;BME280;59081;42.706;23.306;2023-04-10T13:20:10;95095.13;;;10.34;75.45
43934;BME280;59081;42.706;23.306;2023-04-10T13:22:35;95119.19;;;11.35;68.31
43934;BME280;59081;42.706;23.306;2023-04-10T13:25:02;94895.22;;;10.11;66.71
43934;BME280;59081;42.706;23.306;2023-04-10T13:27:28;95049.19;;;11.20;64.68
43934;BME280;59081;42.706;23.306;2023-04-10T13:29:53;94914.84;;;10.52;65.73
43934;BME280;59081;42.706;23.306;2023-04-10T13:32:19;95141.75;;;12.15;64.34
43934;BME280;59081;42.706;23.306;2023-04-10T13:34:45;95005.94;;;11.86;61.47
43934;BME280;59081;42.706;23.306;2023-04-10T13:37:11;94917.25;;;11.75;57.46
43934;BME280;59081;42.706;23.306;2023-04-10T13:39:37;94931.94;;;11.94;57.31
43934;BME280;59081;42.706;23.306;2023-04-10T13:42:03;95094.06;;;12.99;57.59
43934;BME280;59081;42.706;23.306;2023-04-10T13:44:29;94925.19;;;11.73;57.40
43934;BME280;59081;42.706;23.306;2023-04-10T13:46:54;94949.00;;;12.32;55.96
43934;BME280;59081;42.706;23.306;2023-04-10T13:49:20;94920.72;;;12.19;52.98
43934;BME280;59081;42.706;23.306;2023-04-10T13:51:46;94919.06;;;12.31;52.91
43934;BME280;59081;42.706;23.306;2023-04-10T13:54:12;94940.84;;;12.69;52.38
43934;BME280;59081;42.706;23.306;2023-04-10T13:56:38;94936.81;;;13.19;51.12
43934;BME280;59081;42.706;23.306;2023-04-10T13:59:08;94950.34;;;13.44;51.86
43934;BME280;59081;42.706;23.306;2023-04-10T14:01:34;94957.66;;;12.93;51.98
43934;BME280;59081;42.706;23.306;2023-04-10T14:04:00;95119.38;;;14.05;51.56
43934;BME280;59081;42.706;23.306;2023-04-10T14:06:25;95085.53;;;13.91;50.22